Time;durP1;ratioP1;P1;durP2;ratioP2;P2;SDS_P1;SDS_P2;PMS_P1;PMS_P2;Temp;Humidity;BMP_temperature;BMP_pressure;BME280_temperature;BME280_humidity;BME280_pressure;Samples;Min_cycle;Max_cycle;Signal;HPM_P1;HPM_P2
2023/07/30 00:01:19;;;;;;;5.85;2.60;;;18.40;98.00;;;;;;5136018;27;20030;-81
2023/07/30 00:03:45;;;;;;;4.35;2.30;;;18.30;97.90;;;;;;5134648;27;20062;-81
2023/07/30 00:06:10;;;;;;;4.40;2.72;;;18.30;97.80;;;;;;5133909;27;20027;-80
2023/07/30 00:08:36;;;;;;;4.30;2.67;;;18.20;97.40;;;;;;5121795;27;20415;-81
2023/07/30 00:11:01;;;;;;;4.18;2.40;;;18.20;97.60;;;;;;5135518;27;20031;-80
2023/07/30 00:13:27;;;;;;;4.70;2.80;;;18.20;97.60;;;;;;5134166;27;20023;-80
2023/07/30 00:15:52;;;;;;;5.72;2.85;;;18.20;97.50;;;;;;5134965;27;20027;-80
2023/07/30 00:18:19;;;;;;;4.05;2.45;;;18.10;97.50;;;;;;5129536;27;20483;-81
2023/07/30 00:20:44;;;;;;;5.28;2.80;;;18.20;97.90;;;;;;5133876;27;20038;-81
2023/07/30 00:23:10;;;;;;;4.40;2.42;;;18.20;97.70;;;;;;5130980;27;20031;-81
2023/07/30 00:25:35;;;;;;;5.47;2.78;;;18.20;97.80;;;;;;5113752;28;20023;-82
2023/07/30 00:28:01;;;;;;;3.90;2.33;;;18.20;98.00;;;;;;5135611;27;20026;-82
2023/07/30 00:30:27;;;;;;;4.70;2.67;;;18.20;97.90;;;;;;5135724;27;20479;-81
2023/07/30 00:32:52;;;;;;;4.63;2.63;;;18.10;97.50;;;;;;5134695;27;20048;-81
2023/07/30 00:35:18;;;;;;;4.72;2.40;;;18.10;97.60;;;;;;5134249;27;20431;-81
2023/07/30 00:37:43;;;;;;;5.53;2.38;;;18.10;97.50;;;;;;5133859;27;20031;-81
2023/07/30 00:40:09;;;;;;;4.35;2.70;;;18.00;97.30;;;;;;5135019;27;20404;-81
2023/07/30 00:42:35;;;;;;;5.57;2.83;;;17.90;97.00;;;;;;5135813;27;20034;-81
2023/07/30 00:45:00;;;;;;;5.03;2.83;;;17.80;96.80;;;;;;5134961;27;20109;-81
2023/07/30 00:47:27;;;;;;;4.82;2.40;;;17.80;96.20;;;;;;5135111;27;20038;-81
2023/07/30 00:49:53;;;;;;;5.15;2.70;;;17.70;96.10;;;;;;5133774;27;20332;-81
2023/07/30 00:52:21;;;;;;;4.60;2.67;;;17.70;95.60;;;;;;5135981;27;20063;-82
2023/07/30 00:54:51;;;;;;;5.53;2.78;;;17.60;95.50;;;;;;5112719;28;20030;-82
2023/07/30 00:57:18;;;;;;;5.30;3.10;;;17.60;95.80;;;;;;5131141;27;20032;-82
2023/07/30 00:59:44;;;;;;;4.97;2.60;;;17.60;95.40;;;;;;5131030;28;20027;-82
2023/07/30 01:02:10;;;;;;;4.80;2.90;;;17.50;95.10;;;;;;5134902;27;20027;-81
2023/07/30 01:04:37;;;;;;;5.95;2.90;;;17.50;95.10;;;;;;5131223;27;20033;-81
2023/07/30 01:07:03;;;;;;;6.18;2.97;;;17.50;94.70;;;;;;5134254;27;20319;-80
2023/07/30 01:09:29;;;;;;;6.22;3.25;;;17.50;94.70;;;;;;5133214;27;20080;-81
2023/07/30 01:11:55;;;;;;;6.10;3.00;;;17.40;94.30;;;;;;5130756;27;20358;-81
2023/07/30 01:14:22;;;;;;;5.30;2.67;;;17.30;93.80;;;;;;5131667;27;20098;-82
2023/07/30 01:16:48;;;;;;;6.18;3.25;;;17.30;93.80;;;;;;5117791;28;20031;-82
2023/07/30 01:19:14;;;;;;;5.80;3.00;;;17.20;92.70;;;;;;5133338;27;20055;-82
2023/07/30 01:21:40;;;;;;;6.53;3.20;;;17.10;92.10;;;;;;5131742;28;20063;-82
2023/07/30 01:24:05;;;;;;;6.18;3.25;;;17.00;91.80;;;;;;5135090;27;20041;-82
2023/07/30 01:26:38;;;;;;;9.50;3.30;;;17.00;90.90;;;;;;5136865;27;20111;-83
2023/07/30 01:29:14;;;;;;;4.77;2.93;;;16.90;90.60;;;;;;5121470;27;20114;-81
2023/07/30 01:31:41;;;;;;;6.15;2.90;;;16.80;90.10;;;;;;5139413;27;20277;-81
2023/07/30 01:34:09;;;;;;;5.60;3.50;;;16.80;90.40;;;;;;5134799;27;20438;-82
2023/07/30 01:36:35;;;;;;;5.57;3.33;;;16.70;89.40;;;;;;5137877;27;20020;-81
2023/07/30 01:39:01;;;;;;;5.43;3.13;;;16.70;89.90;;;;;;5127121;27;20122;-81
2023/07/30 01:41:27;;;;;;;7.82;3.25;;;16.70;89.70;;;;;;5120045;27;20034;-81
2023/07/30 01:43:54;;;;;;;4.53;2.80;;;16.70;90.30;;;;;;5136901;27;20027;-81
2023/07/30 01:46:19;;;;;;;4.47;2.60;;;16.80;91.20;;;;;;5137763;27;20102;-81
2023/07/30 01:48:45;;;;;;;4.43;2.40;;;16.90;92.20;;;;;;5104054;28;20171;-83
2023/07/30 01:51:10;;;;;;;5.03;3.00;;;16.80;92.40;;;;;;5092163;28;20039;-81
2023/07/30 01:53:36;;;;;;;6.43;2.72;;;16.90;92.50;;;;;;5094127;28;20289;-81
2023/07/30 01:56:01;;;;;;;4.97;2.85;;;17.10;94.40;;;;;;5092811;28;20033;-81
2023/07/30 01:58:27;;;;;;;4.22;2.55;;;17.10;94.60;;;;;;5086492;28;20028;-81
2023/07/30 02:00:52;;;;;;;5.95;2.63;;;17.10;95.00;;;;;;5091127;28;20035;-82
2023/07/30 02:03:18;;;;;;;4.60;2.70;;;17.30;96.10;;;;;;5084831;28;20373;-81
2023/07/30 02:05:43;;;;;;;5.57;3.00;;;17.50;96.90;;;;;;5095034;28;20035;-82
2023/07/30 02:08:09;;;;;;;4.75;2.80;;;17.50;96.40;;;;;;5096688;28;20036;-81
2023/07/30 02:10:35;;;;;;;4.82;2.67;;;17.40;96.60;;;;;;5095355;28;20028;-80
2023/07/30 02:13:00;;;;;;;5.03;2.78;;;17.40;96.90;;;;;;5093533;28;20024;-81
2023/07/30 02:15:26;;;;;;;4.80;2.67;;;17.40;97.10;;;;;;5098792;28;20083;-80
2023/07/30 02:17:52;;;;;;;4.35;2.53;;;17.50;97.20;;;;;;5104869;28;20035;-82
2023/07/30 02:20:17;;;;;;;4.63;2.33;;;17.50;97.10;;;;;;5090484;28;20032;-80
2023/07/30 02:22:43;;;;;;;4.75;2.72;;;17.40;97.00;;;;;;5094956;28;20110;-82
2023/07/30 02:25:08;;;;;;;4.35;2.40;;;17.40;96.90;;;;;;5101216;28;20020;-81
2023/07/30 02:27:34;;;;;;;5.68;2.83;;;17.40;97.10;;;;;;5094830;28;20024;-81
2023/07/30 02:29:59;;;;;;;6.25;2.72;;;17.40;97.10;;;;;;5087153;28;20028;-81
2023/07/30 02:32:25;;;;;;;6.07;2.50;;;17.40;96.90;;;;;;5096018;28;20050;-82
2023/07/30 02:34:51;;;;;;;4.43;2.38;;;17.40;96.90;;;;;;5090662;28;20453;-82
2023/07/30 02:37:16;;;;;;;4.70;2.72;;;17.40;97.00;;;;;;5097148;28;20032;-81
2023/07/30 02:39:43;;;;;;;4.40;2.42;;;17.30;96.60;;;;;;5094878;28;20085;-79
2023/07/30 02:42:08;;;;;;;4.60;2.53;;;17.30;96.60;;;;;;5106903;28;20060;-81
2023/07/30 02:44:34;;;;;;;5.80;2.90;;;17.20;96.40;;;;;;5094274;28;20062;-82
2023/07/30 02:46:59;;;;;;;4.70;2.60;;;17.20;96.30;;;;;;5095122;28;20040;-81
2023/07/30 02:49:25;;;;;;;5.57;2.80;;;17.20;96.10;;;;;;5126504;27;20043;-82
2023/07/30 02:51:50;;;;;;;4.50;2.60;;;17.10;95.90;;;;;;5133683;27;20110;-81
2023/07/30 02:54:16;;;;;;;4.75;2.78;;;17.00;95.00;;;;;;5135970;27;20019;-82
2023/07/30 02:56:43;;;;;;;5.93;3.05;;;16.90;95.00;;;;;;5111963;27;20412;-81
2023/07/30 02:59:08;;;;;;;5.32;2.90;;;16.80;94.60;;;;;;5119807;27;20023;-81
2023/07/30 03:01:34;;;;;;;4.90;2.78;;;16.90;94.90;;;;;;5136399;27;20030;-82
2023/07/30 03:04:03;;;;;;;5.95;2.95;;;16.90;94.80;;;;;;5125050;27;20027;-82
2023/07/30 03:06:28;;;;;;;5.05;2.70;;;16.90;94.60;;;;;;5133665;27;20030;-84
2023/07/30 03:08:54;;;;;;;6.32;2.60;;;16.80;94.00;;;;;;5135876;27;20027;-81
2023/07/30 03:11:19;;;;;;;5.55;2.85;;;16.80;93.80;;;;;;5121708;27;20034;-83
2023/07/30 03:13:45;;;;;;;5.38;2.97;;;16.80;93.90;;;;;;5135181;27;20025;-81
2023/07/30 03:16:10;;;;;;;5.10;2.63;;;16.80;94.20;;;;;;5134407;27;20062;-81
2023/07/30 03:18:36;;;;;;;5.28;2.60;;;16.80;94.00;;;;;;5135673;27;20071;-80
2023/07/30 03:21:02;;;;;;;4.72;2.35;;;16.90;95.00;;;;;;5132631;27;20084;-84
2023/07/30 03:23:28;;;;;;;4.03;2.25;;;17.00;95.20;;;;;;5135120;27;20095;-83
2023/07/30 03:25:53;;;;;;;7.07;2.63;;;17.10;96.00;;;;;;5127129;27;20106;-82
2023/07/30 03:28:19;;;;;;;4.57;2.28;;;17.20;96.20;;;;;;5136924;27;20345;-82
2023/07/30 03:30:44;;;;;;;4.78;2.65;;;17.20;96.50;;;;;;5136288;27;20031;-83
2023/07/30 03:33:10;;;;;;;4.22;2.55;;;17.20;96.50;;;;;;5135494;27;20494;-83
2023/07/30 03:35:35;;;;;;;4.07;2.53;;;17.10;96.10;;;;;;5135622;27;20095;-83
2023/07/30 03:38:01;;;;;;;4.32;2.60;;;17.10;96.30;;;;;;5136967;27;20067;-83
2023/07/30 03:40:27;;;;;;;5.07;2.47;;;17.10;96.20;;;;;;5136042;27;20457;-83
2023/07/30 03:42:53;;;;;;;6.00;2.90;;;17.10;96.20;;;;;;5117845;27;20452;-83
2023/07/30 03:45:19;;;;;;;4.55;2.60;;;17.00;95.60;;;;;;5137278;27;20075;-84
2023/07/30 03:47:44;;;;;;;4.45;2.28;;;17.00;95.40;;;;;;5135913;27;20015;-82
2023/07/30 03:50:10;;;;;;;4.78;2.65;;;17.00;95.40;;;;;;5134552;27;20451;-83
2023/07/30 03:52:35;;;;;;;4.25;2.53;;;16.90;95.40;;;;;;5136677;27;20292;-83
2023/07/30 03:55:01;;;;;;;4.95;2.60;;;17.00;95.20;;;;;;5134748;27;20035;-83
2023/07/30 03:57:26;;;;;;;4.93;3.15;;;16.90;94.80;;;;;;5136513;27;20061;-82
2023/07/30 03:59:52;;;;;;;7.60;2.70;;;16.90;94.70;;;;;;5134466;27;20030;-83
2023/07/30 04:02:17;;;;;;;6.13;2.55;;;16.90;94.10;;;;;;5135401;27;20030;-83
2023/07/30 04:04:44;;;;;;;4.93;2.47;;;16.90;94.10;;;;;;5134945;27;20035;-84
2023/07/30 04:07:10;;;;;;;5.32;2.53;;;16.90;94.40;;;;;;5134649;27;20419;-82
2023/07/30 04:09:36;;;;;;;4.68;2.70;;;16.90;94.20;;;;;;5134668;27;20023;-87
2023/07/30 04:12:01;;;;;;;5.00;2.50;;;17.00;95.40;;;;;;5112441;27;20110;-85
2023/07/30 04:14:27;;;;;;;8.05;2.47;;;17.10;94.70;;;;;;5132592;27;20075;-84
2023/07/30 04:16:53;;;;;;;5.32;2.55;;;17.10;96.10;;;;;;5129253;27;20023;-84
2023/07/30 04:19:19;;;;;;;4.53;2.10;;;17.20;96.40;;;;;;5132217;27;20099;-83
2023/07/30 04:21:44;;;;;;;5.47;2.70;;;17.30;97.50;;;;;;5125329;27;20087;-83
2023/07/30 04:24:10;;;;;;;5.70;2.17;;;17.50;97.50;;;;;;5116694;27;20026;-83
2023/07/30 04:26:36;;;;;;;3.97;2.03;;;17.50;97.80;;;;;;5131436;27;20027;-82
2023/07/30 04:29:01;;;;;;;5.60;2.45;;;17.50;97.50;;;;;;5135752;27;20110;-82
2023/07/30 04:31:27;;;;;;;6.30;2.50;;;17.50;97.40;;;;;;5135461;27;20082;-82
2023/07/30 04:33:53;;;;;;;4.10;2.20;;;17.40;97.40;;;;;;5133870;27;20446;-83
2023/07/30 04:36:18;;;;;;;5.43;2.45;;;17.40;97.30;;;;;;5133172;27;20023;-83
2023/07/30 04:38:44;;;;;;;5.00;2.60;;;17.40;97.20;;;;;;5134058;27;20432;-83
2023/07/30 04:41:09;;;;;;;3.70;2.10;;;17.40;96.90;;;;;;5134739;27;20031;-83
2023/07/30 04:43:35;;;;;;;4.57;2.33;;;17.40;96.80;;;;;;5134106;27;20031;-84
2023/07/30 04:46:00;;;;;;;6.53;2.65;;;17.40;96.40;;;;;;5135844;27;20015;-83
2023/07/30 04:48:26;;;;;;;5.05;2.45;;;17.50;96.80;;;;;;5135869;27;20423;-83
2023/07/30 04:50:52;;;;;;;4.63;2.35;;;17.70;97.60;;;;;;5114770;27;20027;-83
2023/07/30 04:53:18;;;;;;;6.15;2.65;;;17.70;98.00;;;;;;5134704;27;20023;-82
2023/07/30 04:55:44;;;;;;;4.72;2.38;;;17.80;97.50;;;;;;5122637;28;20039;-83
2023/07/30 04:58:09;;;;;;;4.30;2.42;;;17.80;97.70;;;;;;5137729;27;20656;-83
2023/07/30 05:00:35;;;;;;;4.22;2.00;;;18.00;97.80;;;;;;5142306;27;20046;-83
2023/07/30 05:03:00;;;;;;;6.38;2.50;;;18.10;98.00;;;;;;5140903;27;20038;-83
2023/07/30 05:05:26;;;;;;;5.70;2.75;;;18.00;98.00;;;;;;5138586;27;20106;-83
2023/07/30 05:07:52;;;;;;;4.68;2.42;;;17.90;98.00;;;;;;5139280;27;20059;-83
2023/07/30 05:10:18;;;;;;;4.47;2.50;;;17.90;98.00;;;;;;5133599;27;20733;-83
2023/07/30 05:12:43;;;;;;;4.45;2.33;;;17.90;98.00;;;;;;5123572;27;20023;-83
2023/07/30 05:15:09;;;;;;;7.85;2.40;;;17.80;97.50;;;;;;5141182;27;20292;-83
2023/07/30 05:17:34;;;;;;;4.95;2.53;;;17.80;97.60;;;;;;5137022;27;20024;-83
2023/07/30 05:20:00;;;;;;;4.70;2.35;;;17.80;97.60;;;;;;5139612;27;20084;-85
2023/07/30 05:22:25;;;;;;;7.63;2.88;;;17.80;97.70;;;;;;5142293;27;20031;-82
2023/07/30 05:24:51;;;;;;;5.63;2.80;;;17.80;98.00;;;;;;5141024;27;20315;-81
2023/07/30 05:27:16;;;;;;;5.10;2.92;;;17.90;97.80;;;;;;5143308;27;20085;-84
2023/07/30 05:29:42;;;;;;;5.88;2.70;;;18.00;98.00;;;;;;5140811;27;20300;-83
2023/07/30 05:32:08;;;;;;;5.78;2.92;;;18.00;97.80;;;;;;5138779;27;20350;-83
2023/07/30 05:34:34;;;;;;;4.80;2.50;;;18.00;98.00;;;;;;5120807;27;20031;-83
2023/07/30 05:37:01;;;;;;;5.72;2.92;;;18.10;98.00;;;;;;5140922;27;20026;-83
2023/07/30 05:39:26;;;;;;;5.10;2.65;;;18.20;98.00;;;;;;5140712;27;20102;-82
2023/07/30 05:41:52;;;;;;;6.75;2.60;;;18.30;98.00;;;;;;5124721;27;20074;-84
2023/07/30 05:44:17;;;;;;;5.03;2.30;;;18.20;98.00;;;;;;5140649;27;20023;-85
2023/07/30 05:46:43;;;;;;;7.30;3.47;;;18.30;98.00;;;;;;5142202;27;20054;-84
2023/07/30 05:49:09;;;;;;;5.35;2.70;;;18.40;98.00;;;;;;5140860;27;20381;-84
2023/07/30 05:51:34;;;;;;;6.97;2.80;;;18.50;98.00;;;;;;5140316;27;20023;-84
2023/07/30 05:54:00;;;;;;;5.22;2.90;;;18.50;98.00;;;;;;5141676;27;20458;-83
2023/07/30 05:56:25;;;;;;;5.43;3.00;;;18.50;98.00;;;;;;5141365;27;20111;-84
2023/07/30 05:58:51;;;;;;;5.75;3.05;;;18.40;98.00;;;;;;5143148;27;20030;-84
2023/07/30 06:01:17;;;;;;;6.80;3.10;;;18.30;98.00;;;;;;5142021;27;20095;-85
2023/07/30 06:03:42;;;;;;;5.45;2.97;;;18.10;96.50;;;;;;5141419;27;20038;-86
2023/07/30 06:06:08;;;;;;;5.00;2.92;;;18.00;95.30;;;;;;5139623;27;20312;-86
2023/07/30 06:08:34;;;;;;;6.70;3.08;;;17.90;94.90;;;;;;5141588;27;20024;-85
2023/07/30 06:11:03;;;;;;;5.72;3.30;;;17.70;94.00;;;;;;5136646;27;20026;-86
2023/07/30 06:13:29;;;;;;;8.38;3.30;;;17.50;92.20;;;;;;5126079;27;20023;-85
2023/07/30 06:15:55;;;;;;;6.32;2.92;;;17.60;92.00;;;;;;5138019;27;20023;-85
2023/07/30 06:18:21;;;;;;;8.18;3.53;;;17.70;91.00;;;;;;5137595;27;20038;-87
2023/07/30 06:20:47;;;;;;;5.25;3.05;;;17.50;93.00;;;;;;5132993;27;20034;-84
2023/07/30 06:23:12;;;;;;;5.43;3.50;;;17.40;91.70;;;;;;5136845;27;20319;-83
2023/07/30 06:25:38;;;;;;;6.07;3.40;;;17.40;90.80;;;;;;5133057;27;20028;-80
2023/07/30 06:28:05;;;;;;;6.00;3.13;;;17.50;91.00;;;;;;5128897;27;20015;-81
2023/07/30 06:30:31;;;;;;;6.25;3.20;;;17.50;92.40;;;;;;5135007;27;20019;-80
2023/07/30 06:32:57;;;;;;;5.43;2.78;;;17.40;92.20;;;;;;5135058;27;20446;-81
2023/07/30 06:35:23;;;;;;;5.45;2.95;;;17.40;92.00;;;;;;5128704;27;20035;-80
2023/07/30 06:37:49;;;;;;;5.88;3.30;;;17.40;90.60;;;;;;5137360;27;20034;-80
2023/07/30 06:40:14;;;;;;;6.18;3.10;;;17.20;91.90;;;;;;5135943;27;20062;-80
2023/07/30 06:42:40;;;;;;;4.57;2.30;;;17.10;88.70;;;;;;5134629;27;20429;-81
2023/07/30 06:45:06;;;;;;;4.30;2.67;;;17.10;91.50;;;;;;5134292;27;20316;-80
2023/07/30 06:47:32;;;;;;;4.15;2.42;;;17.20;90.90;;;;;;5134274;27;20027;-80
2023/07/30 06:49:57;;;;;;;5.35;2.65;;;17.30;92.50;;;;;;5131793;27;20328;-81
2023/07/30 06:52:23;;;;;;;5.57;3.08;;;17.40;91.90;;;;;;5124431;27;20046;-80
2023/07/30 06:54:48;;;;;;;4.63;2.90;;;17.50;91.20;;;;;;5118312;27;20122;-80
2023/07/30 06:57:14;;;;;;;6.88;2.92;;;17.60;92.00;;;;;;5137539;27;20336;-81
2023/07/30 06:59:40;;;;;;;4.07;2.60;;;17.90;93.70;;;;;;5136576;27;20055;-81
2023/07/30 07:02:06;;;;;;;5.28;3.15;;;18.20;93.00;;;;;;5134920;27;20079;-81
2023/07/30 07:04:31;;;;;;;5.20;2.22;;;18.50;93.60;;;;;;5136308;27;20315;-83
2023/07/30 07:06:57;;;;;;;4.85;2.35;;;18.80;97.20;;;;;;5136789;27;20084;-84
2023/07/30 07:09:22;;;;;;;3.95;2.10;;;19.30;98.00;;;;;;5136614;27;20098;-84
2023/07/30 07:11:48;;;;;;;4.47;2.42;;;19.40;98.00;;;;;;5137316;27;20027;-83
2023/07/30 07:14:13;;;;;;;4.70;2.35;;;19.50;98.00;;;;;;5137494;27;20034;-84
2023/07/30 07:16:39;;;;;;;4.35;2.42;;;19.30;98.00;;;;;;5137828;27;20027;-85
2023/07/30 07:19:05;;;;;;;8.02;2.50;;;19.20;98.00;;;;;;5137040;27;20431;-84
2023/07/30 07:21:30;;;;;;;4.03;2.20;;;19.30;98.00;;;;;;5110970;27;20034;-84
2023/07/30 07:23:56;;;;;;;5.57;2.47;;;19.50;98.00;;;;;;5135291;27;20026;-85
2023/07/30 07:26:21;;;;;;;5.25;2.30;;;19.70;98.00;;;;;;5136665;27;20023;-84
2023/07/30 07:28:47;;;;;;;5.15;2.30;;;20.00;98.00;;;;;;5120137;27;20098;-85
2023/07/30 07:31:12;;;;;;;4.38;2.30;;;20.20;97.90;;;;;;5136132;27;20019;-84
2023/07/30 07:33:38;;;;;;;4.28;2.28;;;20.40;97.80;;;;;;5132348;27;20102;-84
2023/07/30 07:36:05;;;;;;;5.20;2.38;;;20.80;98.00;;;;;;5132600;27;20080;-85
2023/07/30 07:38:32;;;;;;;4.68;2.40;;;21.30;96.90;;;;;;5118820;27;20031;-84
2023/07/30 07:40:57;;;;;;;5.13;2.20;;;21.70;96.20;;;;;;5136080;27;20054;-84
2023/07/30 07:43:24;;;;;;;4.25;2.25;;;21.60;96.30;;;;;;5136948;27;20069;-85
2023/07/30 07:45:49;;;;;;;4.03;2.33;;;21.80;96.20;;;;;;5133374;27;20058;-83
2023/07/30 07:48:15;;;;;;;6.07;2.38;;;21.50;95.10;;;;;;5136253;27;20303;-85
2023/07/30 07:50:40;;;;;;;5.15;2.67;;;21.10;96.30;;;;;;5117748;27;20035;-85
2023/07/30 07:53:06;;;;;;;4.38;2.30;;;20.70;97.10;;;;;;5135848;27;20083;-85
2023/07/30 07:55:31;;;;;;;7.07;2.70;;;20.80;97.90;;;;;;5137697;27;20027;-84
2023/07/30 07:57:57;;;;;;;4.93;2.50;;;20.60;98.00;;;;;;5134544;27;20038;-84
2023/07/30 08:00:22;;;;;;;3.60;2.08;;;20.40;98.00;;;;;;5130731;27;20081;-83
2023/07/30 08:02:48;;;;;;;3.13;1.83;;;20.10;98.00;;;;;;5127911;27;20024;-83
2023/07/30 08:05:14;;;;;;;3.97;1.90;;;19.60;98.00;;;;;;5134189;27;20143;-83
2023/07/30 08:07:39;;;;;;;3.92;1.77;;;19.30;97.70;;;;;;5130759;27;20046;-83
2023/07/30 08:10:06;;;;;;;4.50;1.90;;;19.30;97.90;;;;;;5132746;27;20403;-83
2023/07/30 08:12:32;;;;;;;4.88;1.75;;;20.00;98.00;;;;;;5116074;27;20423;-85
2023/07/30 08:14:58;;;;;;;4.45;1.95;;;21.10;97.90;;;;;;5135059;27;20030;-82
2023/07/30 08:17:24;;;;;;;3.13;1.60;;;21.90;95.90;;;;;;5111859;28;20487;-84
2023/07/30 08:19:50;;;;;;;4.00;1.90;;;22.60;93.90;;;;;;5126072;27;20145;-84
2023/07/30 08:22:16;;;;;;;3.97;1.75;;;23.70;91.90;;;;;;5120474;27;20110;-83
2023/07/30 08:24:41;;;;;;;3.85;1.40;;;24.30;91.00;;;;;;5116350;27;20030;-84
2023/07/30 08:27:07;;;;;;;3.40;1.33;;;24.70;87.30;;;;;;5126508;27;20368;-85
2023/07/30 08:29:34;;;;;;;4.65;1.58;;;24.70;88.50;;;;;;5124254;27;20028;-84
2023/07/30 08:31:59;;;;;;;3.83;1.60;;;25.60;86.00;;;;;;5127781;27;20033;-85
2023/07/30 08:34:25;;;;;;;3.42;1.77;;;26.30;83.70;;;;;;5121310;27;20027;-84
2023/07/30 08:36:50;;;;;;;4.07;1.65;;;26.00;83.80;;;;;;5123995;27;20023;-84
2023/07/30 08:39:16;;;;;;;5.63;1.98;;;24.80;85.80;;;;;;5130431;27;20094;-84
2023/07/30 08:41:42;;;;;;;4.55;2.03;;;23.80;88.20;;;;;;5123713;27;20023;-83
2023/07/30 08:44:09;;;;;;;4.65;1.98;;;23.10;89.80;;;;;;5122642;27;20031;-83
2023/07/30 08:46:35;;;;;;;4.10;2.00;;;22.50;91.80;;;;;;5128904;27;20103;-84
2023/07/30 08:49:00;;;;;;;3.70;1.77;;;22.70;91.20;;;;;;5133876;27;20067;-84
2023/07/30 08:51:27;;;;;;;4.35;1.95;;;23.00;91.30;;;;;;5117540;27;20024;-84
2023/07/30 08:53:53;;;;;;;3.65;1.83;;;23.40;89.70;;;;;;5136014;27;20069;-84
2023/07/30 08:56:19;;;;;;;5.65;2.00;;;23.40;90.30;;;;;;5135667;27;20027;-84
2023/07/30 08:58:47;;;;;;;4.80;1.88;;;23.40;89.70;;;;;;5118238;28;20042;-85
2023/07/30 09:01:16;;;;;;;5.53;1.90;;;23.10;90.90;;;;;;5135875;28;20035;-85
2023/07/30 09:03:41;;;;;;;4.70;2.20;;;22.70;91.40;;;;;;5136751;28;20095;-85
2023/07/30 09:06:07;;;;;;;3.38;1.88;;;22.00;93.70;;;;;;5135778;28;20019;-84
2023/07/30 09:08:33;;;;;;;3.80;2.10;;;21.50;95.00;;;;;;5118694;28;20019;-85
2023/07/30 09:11:11;;;;;;;4.10;2.00;;;21.10;96.10;;;;;;5125959;27;20306;-85
2023/07/30 09:13:41;;;;;;;3.88;2.30;;;20.60;96.70;;;;;;5126266;27;20094;-84
2023/07/30 09:16:11;;;;;;;4.20;2.22;;;20.30;97.30;;;;;;5134672;27;20031;-84
2023/07/30 09:18:45;;;;;;;5.38;2.50;;;19.80;96.50;;;;;;5135804;27;20442;-84
2023/07/30 09:21:13;;;;;;;;;;;19.50;97.50;;;;;;5114535;28;20371;-84
2023/07/30 09:23:44;;;;;;;6.68;2.53;;;19.10;97.00;;;;;;5114001;28;20052;-83
2023/07/30 09:26:10;;;;;;;4.68;2.65;;;18.60;97.60;;;;;;5136038;28;20031;-84
2023/07/30 09:28:36;;;;;;;5.18;2.70;;;18.30;97.60;;;;;;5117031;28;20019;-83
2023/07/30 09:31:04;;;;;;;5.28;2.70;;;18.20;98.00;;;;;;5133379;27;20035;-86
2023/07/30 09:33:33;;;;;;;7.07;2.45;;;18.20;97.10;;;;;;5120561;27;20328;-83
2023/07/30 09:36:02;;;;;;;4.75;2.53;;;18.10;97.30;;;;;;5112630;28;20023;-84
2023/07/30 09:38:30;;;;;;;4.85;2.60;;;18.00;97.80;;;;;;5134587;28;20054;-84
2023/07/30 09:41:01;;;;;;;4.13;2.40;;;18.20;97.90;;;;;;5121463;27;20408;-83
2023/07/30 09:43:32;;;;;;;5.22;2.33;;;18.70;98.00;;;;;;5132505;28;20107;-85
2023/07/30 09:46:03;;;;;;;4.03;2.15;;;19.10;97.90;;;;;;5115749;27;20030;-84
2023/07/30 09:48:30;;;;;;;3.88;2.00;;;19.60;97.60;;;;;;5113411;27;20046;-84
2023/07/30 09:51:02;;;;;;;7.03;2.30;;;19.80;97.00;;;;;;5131783;27;20015;-84
2023/07/30 09:53:36;;;;;;;4.40;2.25;;;19.70;96.90;;;;;;5134430;27;20023;-83
2023/07/30 09:56:06;;;;;;;4.00;2.22;;;19.50;96.90;;;;;;5131156;27;20037;-83
2023/07/30 09:58:31;;;;;;;5.70;2.25;;;19.60;97.40;;;;;;5112822;27;20537;-83
2023/07/30 10:01:01;;;;;;;3.95;1.98;;;19.80;96.30;;;;;;5132711;27;20023;-84
2023/07/30 10:03:29;;;;;;;4.45;1.92;;;20.10;94.70;;;;;;5130700;27;20027;-82
2023/07/30 10:06:02;;;;;;;4.30;2.00;;;20.20;94.40;;;;;;5116824;27;20298;-82
2023/07/30 10:08:31;;;;;;;3.63;1.70;;;20.20;95.10;;;;;;5136124;27;20020;-84
2023/07/30 10:10:58;;;;;;;5.03;1.92;;;20.20;95.00;;;;;;5126665;27;20023;-85
2023/07/30 10:13:25;;;;;;;3.75;1.88;;;20.30;94.30;;;;;;5121757;27;20102;-83
2023/07/30 10:15:51;;;;;;;3.75;2.00;;;19.80;94.90;;;;;;5130891;27;20039;-85
2023/07/30 10:18:19;;;;;;;7.13;2.58;;;19.40;95.00;;;;;;5130527;27;20034;-84
2023/07/30 10:20:56;;;;;;;3.85;2.05;;;18.90;96.10;;;;;;5116243;27;20027;-84
2023/07/30 10:23:28;;;;;;;4.07;2.13;;;18.40;97.30;;;;;;5133914;27;20424;-83
2023/07/30 10:25:59;;;;;;;5.10;2.30;;;18.20;97.80;;;;;;5131543;27;20021;-84
2023/07/30 10:28:31;;;;;;;4.25;2.30;;;18.30;97.90;;;;;;5123075;27;20118;-83
2023/07/30 10:30:58;;;;;;;3.88;2.00;;;18.30;97.80;;;;;;5119196;28;20028;-84
2023/07/30 10:33:45;;;;;;;4.38;2.10;;;18.30;97.90;;;;;;5129402;27;20084;-84
2023/07/30 10:36:11;;;;;;;3.80;2.10;;;18.50;97.70;;;;;;5137360;27;20019;-84
2023/07/30 10:38:39;;;;;;;3.85;2.13;;;18.70;97.00;;;;;;5118219;27;20023;-84
2023/07/30 10:41:12;;;;;;;3.90;2.35;;;19.00;96.00;;;;;;5138415;27;20023;-83
2023/07/30 10:43:43;;;;;;;5.78;2.00;;;19.50;95.10;;;;;;5133738;27;20038;-84
2023/07/30 10:46:13;;;;;;;3.67;1.85;;;20.20;92.90;;;;;;5139359;27;20027;-83
2023/07/30 10:48:40;;;;;;;4.68;2.20;;;20.30;91.90;;;;;;5127911;27;20039;-83
2023/07/30 10:51:09;;;;;;;4.55;2.15;;;20.00;91.90;;;;;;5127229;27;20514;-84
2023/07/30 10:53:39;;;;;;;4.32;2.10;;;19.70;92.20;;;;;;5115976;27;20064;-85
2023/07/30 10:56:06;;;;;;;4.32;2.20;;;19.70;92.80;;;;;;5129196;27;20031;-82
2023/07/30 10:58:35;;;;;;;4.07;2.13;;;20.10;91.70;;;;;;5113660;27;20027;-83
2023/07/30 11:01:08;;;;;;;4.15;2.00;;;20.20;91.40;;;;;;5128595;27;20031;-84
2023/07/30 11:03:34;;;;;;;5.85;2.20;;;20.60;89.80;;;;;;5133208;27;20033;-84
2023/07/30 11:06:01;;;;;;;3.72;1.92;;;20.70;89.10;;;;;;5130800;27;20054;-83
2023/07/30 11:08:34;;;;;;;4.00;1.90;;;20.90;89.30;;;;;;5134828;27;20027;-84
2023/07/30 11:11:00;;;;;;;3.63;1.77;;;21.60;88.50;;;;;;5132205;27;20030;-84
2023/07/30 11:13:26;;;;;;;3.85;1.77;;;21.90;86.90;;;;;;5134039;27;20035;-84
2023/07/30 11:15:52;;;;;;;3.95;1.90;;;21.70;87.60;;;;;;5130443;27;20031;-83
2023/07/30 11:18:18;;;;;;;3.95;1.92;;;22.00;86.90;;;;;;5127875;27;20372;-84
2023/07/30 11:20:45;;;;;;;3.83;1.80;;;22.60;84.90;;;;;;5123681;27;20031;-82
2023/07/30 11:23:33;;;;;;;4.38;1.90;;;22.90;84.10;;;;;;5122414;27;20071;-83
2023/07/30 11:26:02;;;;;;;3.88;1.80;;;23.30;81.20;;;;;;5108679;27;20027;-84
2023/07/30 11:28:31;;;;;;;4.10;1.77;;;23.40;82.00;;;;;;5129752;27;20072;-82
2023/07/30 11:31:00;;;;;;;4.63;2.08;;;23.90;83.20;;;;;;5130343;27;20092;-82
2023/07/30 11:33:41;;;;;;;4.60;2.00;;;24.50;80.30;;;;;;5127639;27;20079;-82
2023/07/30 11:36:16;;;;;;;4.25;1.95;;;24.30;81.60;;;;;;5099595;27;20042;-83
2023/07/30 11:38:42;;;;;;;3.38;1.70;;;24.90;79.40;;;;;;5107126;27;20130;-82
2023/07/30 11:41:10;;;;;;;4.60;2.08;;;24.60;78.90;;;;;;5117917;27;20027;-81
2023/07/30 11:43:43;;;;;;;4.47;1.83;;;23.60;79.90;;;;;;5107765;27;20070;-82
2023/07/30 11:46:11;;;;;;;4.30;1.80;;;23.00;80.30;;;;;;5101378;27;20028;-83
2023/07/30 11:48:38;;;;;;;5.35;2.33;;;23.00;81.60;;;;;;5134862;27;20112;-83
2023/07/30 11:51:04;;;;;;;5.80;2.40;;;22.70;81.50;;;;;;5133400;27;20054;-82
2023/07/30 11:53:53;;;;;;;3.97;1.88;;;22.30;83.30;;;;;;5117518;27;20111;-83
2023/07/30 11:56:25;;;;;;;4.10;2.17;;;21.90;83.90;;;;;;5116295;27;20662;-82
2023/07/30 11:58:56;;;;;;;3.95;2.10;;;22.20;82.60;;;;;;5132666;27;20169;-84
2023/07/30 12:01:24;;;;;;;5.90;1.85;;;22.80;81.20;;;;;;5116228;27;20023;-83
2023/07/30 12:03:54;;;;;;;5.85;2.28;;;23.00;81.10;;;;;;5132670;27;20023;-84
2023/07/30 12:06:19;;;;;;;4.30;2.08;;;22.90;80.60;;;;;;5131887;27;20087;-83
2023/07/30 12:08:49;;;;;;;4.32;2.10;;;22.70;82.40;;;;;;5132426;27;20513;-83
2023/07/30 12:11:17;;;;;;;4.57;2.17;;;22.50;82.40;;;;;;5103999;28;20028;-83
2023/07/30 12:13:46;;;;;;;4.22;2.10;;;22.60;82.60;;;;;;5129893;27;20030;-83
2023/07/30 12:16:12;;;;;;;6.20;2.17;;;23.10;81.70;;;;;;5133231;27;20034;-83
2023/07/30 12:18:39;;;;;;;4.65;2.30;;;23.70;79.70;;;;;;5101189;28;20039;-83
2023/07/30 12:21:07;;;;;;;5.38;2.00;;;23.40;80.30;;;;;;5126123;27;20023;-83
2023/07/30 12:23:36;;;;;;;7.95;2.30;;;23.60;78.80;;;;;;5119864;27;20030;-83
2023/07/30 12:26:04;;;;;;;5.65;1.90;;;23.80;77.30;;;;;;5119879;27;20047;-83
2023/07/30 12:28:34;;;;;;;4.25;2.10;;;23.80;77.10;;;;;;5115311;27;20023;-83
2023/07/30 12:31:00;;;;;;;4.25;2.17;;;24.30;75.80;;;;;;5133358;27;20024;-83
2023/07/30 12:33:25;;;;;;;4.32;2.00;;;23.60;76.60;;;;;;5133357;27;20030;-82
2023/07/30 12:35:51;;;;;;;5.75;2.15;;;23.70;76.60;;;;;;5130439;27;20027;-82
2023/07/30 12:38:17;;;;;;;4.38;1.95;;;24.00;76.60;;;;;;5130813;27;20656;-82
2023/07/30 12:40:43;;;;;;;6.30;2.40;;;24.90;74.40;;;;;;5133911;27;20031;-81
2023/07/30 12:43:09;;;;;;;3.92;2.10;;;25.10;74.00;;;;;;5113246;27;20042;-82
2023/07/30 12:45:34;;;;;;;11.13;2.60;;;24.80;74.50;;;;;;5132571;27;20038;-82